sensor_id;sensor_type;location;lat;lon;timestamp;temperature;humidity
11664;DHT22;72375;59.302;18.204;2023-09-30T00:00:05;16.10;99.90
11664;DHT22;72375;59.302;18.204;2023-09-30T00:02:53;16.10;99.90
11664;DHT22;72375;59.302;18.204;2023-09-30T00:05:39;16.10;99.90
11664;DHT22;72375;59.302;18.204;2023-09-30T00:08:24;16.10;99.90
11664;DHT22;72375;59.302;18.204;2023-09-30T00:11:11;16.10;99.90
11664;DHT22;72375;59.302;18.204;2023-09-30T00:14:00;16.10;99.90
11664;DHT22;72375;59.302;18.204;2023-09-30T00:16:46;16.10;99.90
11664;DHT22;72375;59.302;18.204;2023-09-30T00:19:31;16.10;99.90
11664;DHT22;72375;59.302;18.204;2023-09-30T00:22:17;16.10;99.90
11664;DHT22;72375;59.302;18.204;2023-09-30T00:25:03;16.10;99.90
11664;DHT22;72375;59.302;18.204;2023-09-30T00:27:51;16.10;99.90
11664;DHT22;72375;59.302;18.204;2023-09-30T00:30:36;16.20;99.90
11664;DHT22;72375;59.302;18.204;2023-09-30T00:33:22;16.10;99.90
11664;DHT22;72375;59.302;18.204;2023-09-30T00:36:09;16.20;99.90
11664;DHT22;72375;59.302;18.204;2023-09-30T00:38:56;16.20;99.90
11664;DHT22;72375;59.302;18.204;2023-09-30T00:41:42;16.20;99.90
11664;DHT22;72375;59.302;18.204;2023-09-30T00:44:29;16.20;99.90
11664;DHT22;72375;59.302;18.204;2023-09-30T00:47:15;16.20;99.90
11664;DHT22;72375;59.302;18.204;2023-09-30T00:50:01;16.20;99.90
11664;DHT22;72375;59.302;18.204;2023-09-30T00:52:48;16.20;99.90
11664;DHT22;72375;59.302;18.204;2023-09-30T00:55:34;16.20;99.90
11664;DHT22;72375;59.302;18.204;2023-09-30T00:58:21;16.20;99.90
11664;DHT22;72375;59.302;18.204;2023-09-30T01:01:09;16.20;99.90
11664;DHT22;72375;59.302;18.204;2023-09-30T01:03:55;16.20;99.90
11664;DHT22;72375;59.302;18.204;2023-09-30T01:06:42;16.20;99.90
11664;DHT22;72375;59.302;18.204;2023-09-30T01:09:28;16.20;99.90
11664;DHT22;72375;59.302;18.204;2023-09-30T01:12:13;16.20;99.90
11664;DHT22;72375;59.302;18.204;2023-09-30T01:14:59;16.20;99.90
11664;DHT22;72375;59.302;18.204;2023-09-30T01:17:46;16.20;99.90
11664;DHT22;72375;59.302;18.204;2023-09-30T01:20:32;16.20;99.90
11664;DHT22;72375;59.302;18.204;2023-09-30T01:23:19;16.20;99.90
11664;DHT22;72375;59.302;18.204;2023-09-30T01:26:08;16.20;99.90
11664;DHT22;72375;59.302;18.204;2023-09-30T01:28:54;16.20;99.90
11664;DHT22;72375;59.302;18.204;2023-09-30T01:31:39;16.20;99.90
11664;DHT22;72375;59.302;18.204;2023-09-30T01:34:25;16.20;99.90
11664;DHT22;72375;59.302;18.204;2023-09-30T01:37:12;16.20;99.90
11664;DHT22;72375;59.302;18.204;2023-09-30T01:39:59;16.20;99.90
11664;DHT22;72375;59.302;18.204;2023-09-30T01:42:45;16.20;99.90
11664;DHT22;72375;59.302;18.204;2023-09-30T01:45:30;16.20;99.90
11664;DHT22;72375;59.302;18.204;2023-09-30T01:48:16;16.20;99.90
11664;DHT22;72375;59.302;18.204;2023-09-30T01:51:01;16.20;99.90
11664;DHT22;72375;59.302;18.204;2023-09-30T01:53:47;16.20;99.90
11664;DHT22;72375;59.302;18.204;2023-09-30T01:56:34;16.20;99.90
11664;DHT22;72375;59.302;18.204;2023-09-30T01:59:19;16.20;99.90
11664;DHT22;72375;59.302;18.204;2023-09-30T02:02:05;16.20;99.90
11664;DHT22;72375;59.302;18.204;2023-09-30T02:04:51;16.20;99.90
11664;DHT22;72375;59.302;18.204;2023-09-30T02:07:38;16.20;99.90
11664;DHT22;72375;59.302;18.204;2023-09-30T02:10:24;16.20;99.90
11664;DHT22;72375;59.302;18.204;2023-09-30T02:13:11;16.20;99.90
11664;DHT22;72375;59.302;18.204;2023-09-30T02:15:56;16.20;99.90
11664;DHT22;72375;59.302;18.204;2023-09-30T02:18:43;16.10;99.90
11664;DHT22;72375;59.302;18.204;2023-09-30T02:21:30;16.10;99.90
11664;DHT22;72375;59.302;18.204;2023-09-30T02:24:15;16.10;99.90
11664;DHT22;72375;59.302;18.204;2023-09-30T02:27:01;16.00;99.90
11664;DHT22;72375;59.302;18.204;2023-09-30T02:29:48;16.00;99.90
11664;DHT22;72375;59.302;18.204;2023-09-30T02:32:33;16.00;99.90
11664;DHT22;72375;59.302;18.204;2023-09-30T02:35:19;15.90;99.90
11664;DHT22;72375;59.302;18.204;2023-09-30T02:38:05;15.90;99.90
11664;DHT22;72375;59.302;18.204;2023-09-30T02:40:51;15.80;99.90
11664;DHT22;72375;59.302;18.204;2023-09-30T02:43:37;15.80;99.90
11664;DHT22;72375;59.302;18.204;2023-09-30T02:46:24;15.80;99.90
11664;DHT22;72375;59.302;18.204;2023-09-30T02:49:11;15.70;99.90
11664;DHT22;72375;59.302;18.204;2023-09-30T02:51:57;15.60;99.90
11664;DHT22;72375;59.302;18.204;2023-09-30T02:54:43;15.60;99.90
11664;DHT22;72375;59.302;18.204;2023-09-30T02:57:28;15.50;99.90
11664;DHT22;72375;59.302;18.204;2023-09-30T03:00:16;15.50;99.90
11664;DHT22;72375;59.302;18.204;2023-09-30T03:03:09;15.50;99.90
11664;DHT22;72375;59.302;18.204;2023-09-30T03:05:54;15.50;99.90
11664;DHT22;72375;59.302;18.204;2023-09-30T03:08:40;15.40;99.90
11664;DHT22;72375;59.302;18.204;2023-09-30T03:11:26;15.40;99.90
11664;DHT22;72375;59.302;18.204;2023-09-30T03:14:12;15.30;99.90
11664;DHT22;72375;59.302;18.204;2023-09-30T03:16:58;15.40;99.90
11664;DHT22;72375;59.302;18.204;2023-09-30T03:19:45;15.30;99.90
11664;DHT22;72375;59.302;18.204;2023-09-30T03:22:31;15.30;99.90
11664;DHT22;72375;59.302;18.204;2023-09-30T03:25:18;15.30;99.90
11664;DHT22;72375;59.302;18.204;2023-09-30T03:28:04;15.20;99.90
11664;DHT22;72375;59.302;18.204;2023-09-30T03:30:50;15.20;99.90
11664;DHT22;72375;59.302;18.204;2023-09-30T03:33:37;15.20;99.90
11664;DHT22;72375;59.302;18.204;2023-09-30T03:36:24;15.20;99.90
11664;DHT22;72375;59.302;18.204;2023-09-30T03:39:10;15.20;99.90
11664;DHT22;72375;59.302;18.204;2023-09-30T03:41:59;15.10;99.90
11664;DHT22;72375;59.302;18.204;2023-09-30T03:44:45;15.10;99.90
11664;DHT22;72375;59.302;18.204;2023-09-30T03:47:32;15.10;99.90
11664;DHT22;72375;59.302;18.204;2023-09-30T03:50:17;15.10;99.90
11664;DHT22;72375;59.302;18.204;2023-09-30T03:53:05;15.10;99.90
11664;DHT22;72375;59.302;18.204;2023-09-30T03:55:51;15.10;99.90
11664;DHT22;72375;59.302;18.204;2023-09-30T03:58:37;15.10;99.90
11664;DHT22;72375;59.302;18.204;2023-09-30T04:01:22;15.10;99.90
11664;DHT22;72375;59.302;18.204;2023-09-30T04:04:10;15.10;99.90
11664;DHT22;72375;59.302;18.204;2023-09-30T04:06:55;15.00;99.90
11664;DHT22;72375;59.302;18.204;2023-09-30T04:09:42;15.00;99.90
11664;DHT22;72375;59.302;18.204;2023-09-30T04:12:28;15.00;99.90
11664;DHT22;72375;59.302;18.204;2023-09-30T04:15:13;15.00;99.90
11664;DHT22;72375;59.302;18.204;2023-09-30T04:17:59;15.00;99.90
11664;DHT22;72375;59.302;18.204;2023-09-30T04:20:45;15.00;99.90
11664;DHT22;72375;59.302;18.204;2023-09-30T04:23:31;14.90;99.90
11664;DHT22;72375;59.302;18.204;2023-09-30T04:26:18;15.00;99.90
11664;DHT22;72375;59.302;18.204;2023-09-30T04:29:04;14.90;99.90
11664;DHT22;72375;59.302;18.204;2023-09-30T04:31:50;14.90;99.90
11664;DHT22;72375;59.302;18.204;2023-09-30T04:34:36;14.90;99.90
11664;DHT22;72375;59.302;18.204;2023-09-30T04:37:22;14.80;99.90
11664;DHT22;72375;59.302;18.204;2023-09-30T04:40:09;14.80;99.90
11664;DHT22;72375;59.302;18.204;2023-09-30T04:43:00;14.80;99.90
11664;DHT22;72375;59.302;18.204;2023-09-30T04:45:46;14.80;99.90
11664;DHT22;72375;59.302;18.204;2023-09-30T04:48:33;14.70;99.90
11664;DHT22;72375;59.302;18.204;2023-09-30T04:51:19;14.70;99.90
11664;DHT22;72375;59.302;18.204;2023-09-30T04:54:05;14.70;99.90
11664;DHT22;72375;59.302;18.204;2023-09-30T04:56:52;14.70;99.90
11664;DHT22;72375;59.302;18.204;2023-09-30T04:59:39;14.70;99.90
11664;DHT22;72375;59.302;18.204;2023-09-30T05:02:27;14.60;99.90
11664;DHT22;72375;59.302;18.204;2023-09-30T05:05:13;14.60;99.90
11664;DHT22;72375;59.302;18.204;2023-09-30T05:07:58;14.60;99.90
11664;DHT22;72375;59.302;18.204;2023-09-30T05:10:44;14.50;99.90
11664;DHT22;72375;59.302;18.204;2023-09-30T05:13:31;14.60;99.90
11664;DHT22;72375;59.302;18.204;2023-09-30T05:16:19;14.50;99.90
11664;DHT22;72375;59.302;18.204;2023-09-30T05:19:05;14.50;99.90
11664;DHT22;72375;59.302;18.204;2023-09-30T05:21:50;14.50;99.90
11664;DHT22;72375;59.302;18.204;2023-09-30T05:24:36;14.50;99.90
11664;DHT22;72375;59.302;18.204;2023-09-30T05:27:22;14.40;99.90
11664;DHT22;72375;59.302;18.204;2023-09-30T05:30:08;14.40;99.90
11664;DHT22;72375;59.302;18.204;2023-09-30T05:32:56;14.40;99.90
11664;DHT22;72375;59.302;18.204;2023-09-30T05:35:43;14.40;99.90
11664;DHT22;72375;59.302;18.204;2023-09-30T05:38:28;14.40;99.90
11664;DHT22;72375;59.302;18.204;2023-09-30T05:41:15;14.40;99.90
11664;DHT22;72375;59.302;18.204;2023-09-30T05:44:01;14.40;99.90
11664;DHT22;72375;59.302;18.204;2023-09-30T05:46:47;14.40;99.90
11664;DHT22;72375;59.302;18.204;2023-09-30T05:49:34;14.40;99.90
11664;DHT22;72375;59.302;18.204;2023-09-30T05:52:20;14.40;99.90
11664;DHT22;72375;59.302;18.204;2023-09-30T05:55:06;14.40;99.90
11664;DHT22;72375;59.302;18.204;2023-09-30T05:57:52;14.40;99.90
11664;DHT22;72375;59.302;18.204;2023-09-30T06:00:38;14.40;99.90
11664;DHT22;72375;59.302;18.204;2023-09-30T06:03:25;14.40;99.90
11664;DHT22;72375;59.302;18.204;2023-09-30T06:06:15;14.40;99.90
11664;DHT22;72375;59.302;18.204;2023-09-30T06:09:01;14.30;99.90
11664;DHT22;72375;59.302;18.204;2023-09-30T06:11:46;14.30;99.90
11664;DHT22;72375;59.302;18.204;2023-09-30T06:14:32;14.40;99.90
11664;DHT22;72375;59.302;18.204;2023-09-30T06:17:18;14.40;99.90
11664;DHT22;72375;59.302;18.204;2023-09-30T06:20:07;14.40;99.90
11664;DHT22;72375;59.302;18.204;2023-09-30T06:23:01;14.40;99.90
11664;DHT22;72375;59.302;18.204;2023-09-30T06:25:47;14.40;99.90
11664;DHT22;72375;59.302;18.204;2023-09-30T06:28:33;14.40;99.90
11664;DHT22;72375;59.302;18.204;2023-09-30T06:31:24;14.40;99.90
11664;DHT22;72375;59.302;18.204;2023-09-30T06:34:11;14.40;99.90
11664;DHT22;72375;59.302;18.204;2023-09-30T06:36:57;14.50;99.90
11664;DHT22;72375;59.302;18.204;2023-09-30T06:39:44;14.40;99.90
11664;DHT22;72375;59.302;18.204;2023-09-30T06:42:29;14.50;99.90
11664;DHT22;72375;59.302;18.204;2023-09-30T06:45:15;14.50;99.90
11664;DHT22;72375;59.302;18.204;2023-09-30T06:48:01;14.50;99.90
11664;DHT22;72375;59.302;18.204;2023-09-30T06:50:48;14.50;99.90
11664;DHT22;72375;59.302;18.204;2023-09-30T06:53:34;14.60;99.90
11664;DHT22;72375;59.302;18.204;2023-09-30T06:56:21;14.60;99.90
11664;DHT22;72375;59.302;18.204;2023-09-30T06:59:07;14.70;99.90
11664;DHT22;72375;59.302;18.204;2023-09-30T07:01:52;14.80;99.90
11664;DHT22;72375;59.302;18.204;2023-09-30T07:04:38;14.80;99.90
11664;DHT22;72375;59.302;18.204;2023-09-30T07:07:24;14.90;99.90
11664;DHT22;72375;59.302;18.204;2023-09-30T07:10:10;14.90;99.90
11664;DHT22;72375;59.302;18.204;2023-09-30T07:12:57;14.90;99.90
11664;DHT22;72375;59.302;18.204;2023-09-30T07:15:42;15.00;99.90
11664;DHT22;72375;59.302;18.204;2023-09-30T07:18:28;15.00;99.90
11664;DHT22;72375;59.302;18.204;2023-09-30T07:21:14;15.10;99.90
11664;DHT22;72375;59.302;18.204;2023-09-30T07:24:00;15.10;99.90
11664;DHT22;72375;59.302;18.204;2023-09-30T07:26:45;15.20;99.90
11664;DHT22;72375;59.302;18.204;2023-09-30T07:29:33;15.20;99.90
11664;DHT22;72375;59.302;18.204;2023-09-30T07:32:18;15.20;99.90
11664;DHT22;72375;59.302;18.204;2023-09-30T07:35:07;15.30;99.90
11664;DHT22;72375;59.302;18.204;2023-09-30T07:37:53;15.30;99.90
11664;DHT22;72375;59.302;18.204;2023-09-30T07:40:38;15.50;99.90
11664;DHT22;72375;59.302;18.204;2023-09-30T07:43:24;15.60;99.90
11664;DHT22;72375;59.302;18.204;2023-09-30T07:46:11;15.70;99.90
11664;DHT22;72375;59.302;18.204;2023-09-30T07:48:59;15.70;99.90
11664;DHT22;72375;59.302;18.204;2023-09-30T07:51:45;15.60;99.90
11664;DHT22;72375;59.302;18.204;2023-09-30T07:54:31;15.60;99.90
11664;DHT22;72375;59.302;18.204;2023-09-30T07:57:17;15.70;99.90
11664;DHT22;72375;59.302;18.204;2023-09-30T08:00:04;15.90;99.90
11664;DHT22;72375;59.302;18.204;2023-09-30T08:02:54;16.10;99.90
11664;DHT22;72375;59.302;18.204;2023-09-30T08:05:40;16.30;99.90
11664;DHT22;72375;59.302;18.204;2023-09-30T08:08:26;16.50;99.90
11664;DHT22;72375;59.302;18.204;2023-09-30T08:11:14;16.80;99.90
11664;DHT22;72375;59.302;18.204;2023-09-30T08:13:59;17.00;99.90
11664;DHT22;72375;59.302;18.204;2023-09-30T08:16:50;17.10;99.90
11664;DHT22;72375;59.302;18.204;2023-09-30T08:19:37;17.20;99.90
11664;DHT22;72375;59.302;18.204;2023-09-30T08:22:23;17.30;99.90
11664;DHT22;72375;59.302;18.204;2023-09-30T08:25:11;17.30;99.90
11664;DHT22;72375;59.302;18.204;2023-09-30T08:27:57;17.40;99.90
11664;DHT22;72375;59.302;18.204;2023-09-30T08:30:43;17.40;99.90
11664;DHT22;72375;59.302;18.204;2023-09-30T08:33:28;17.50;99.90
11664;DHT22;72375;59.302;18.204;2023-09-30T08:36:16;17.40;99.90
11664;DHT22;72375;59.302;18.204;2023-09-30T08:39:01;17.60;99.90
11664;DHT22;72375;59.302;18.204;2023-09-30T08:41:49;17.90;99.90
11664;DHT22;72375;59.302;18.204;2023-09-30T08:44:37;18.20;99.90
11664;DHT22;72375;59.302;18.204;2023-09-30T08:47:26;18.40;99.90
11664;DHT22;72375;59.302;18.204;2023-09-30T08:50:13;18.60;99.90
11664;DHT22;72375;59.302;18.204;2023-09-30T08:53:00;19.10;99.90
11664;DHT22;72375;59.302;18.204;2023-09-30T08:55:48;19.50;99.90
11664;DHT22;72375;59.302;18.204;2023-09-30T08:58:36;19.90;99.90
11664;DHT22;72375;59.302;18.204;2023-09-30T09:01:22;20.10;99.90
11664;DHT22;72375;59.302;18.204;2023-09-30T09:04:08;20.00;99.90
11664;DHT22;72375;59.302;18.204;2023-09-30T09:06:54;19.90;99.90
11664;DHT22;72375;59.302;18.204;2023-09-30T09:09:41;20.10;99.90
11664;DHT22;72375;59.302;18.204;2023-09-30T09:12:55;20.10;99.90
11664;DHT22;72375;59.302;18.204;2023-09-30T09:15:41;19.90;99.90
11664;DHT22;72375;59.302;18.204;2023-09-30T09:18:31;19.80;99.90
11664;DHT22;72375;59.302;18.204;2023-09-30T09:21:19;19.60;99.90
11664;DHT22;72375;59.302;18.204;2023-09-30T09:24:06;19.40;99.90
11664;DHT22;72375;59.302;18.204;2023-09-30T09:27:03;19.30;99.90
11664;DHT22;72375;59.302;18.204;2023-09-30T09:29:49;19.10;99.90
11664;DHT22;72375;59.302;18.204;2023-09-30T09:32:34;19.00;99.90
11664;DHT22;72375;59.302;18.204;2023-09-30T09:35:20;19.00;99.90
11664;DHT22;72375;59.302;18.204;2023-09-30T09:38:07;18.90;99.90
11664;DHT22;72375;59.302;18.204;2023-09-30T09:40:59;19.00;99.90
11664;DHT22;72375;59.302;18.204;2023-09-30T09:43:49;19.00;99.90
11664;DHT22;72375;59.302;18.204;2023-09-30T09:46:35;19.00;99.90
11664;DHT22;72375;59.302;18.204;2023-09-30T09:49:22;19.00;99.90
11664;DHT22;72375;59.302;18.204;2023-09-30T09:52:08;19.00;99.90
11664;DHT22;72375;59.302;18.204;2023-09-30T09:54:54;19.20;99.90
11664;DHT22;72375;59.302;18.204;2023-09-30T09:57:43;19.30;99.90
11664;DHT22;72375;59.302;18.204;2023-09-30T10:00:30;19.60;99.90
11664;DHT22;72375;59.302;18.204;2023-09-30T10:03:18;20.10;99.90
11664;DHT22;72375;59.302;18.204;2023-09-30T10:06:04;20.50;99.90
11664;DHT22;72375;59.302;18.204;2023-09-30T10:08:51;20.70;99.90
11664;DHT22;72375;59.302;18.204;2023-09-30T10:11:38;20.60;99.90
11664;DHT22;72375;59.302;18.204;2023-09-30T10:14:31;20.60;99.90
11664;DHT22;72375;59.302;18.204;2023-09-30T10:17:19;20.60;99.90
11664;DHT22;72375;59.302;18.204;2023-09-30T10:20:06;20.80;99.90
11664;DHT22;72375;59.302;18.204;2023-09-30T10:23:18;21.10;99.90
11664;DHT22;72375;59.302;18.204;2023-09-30T10:26:16;21.70;99.90
11664;DHT22;72375;59.302;18.204;2023-09-30T10:29:09;22.20;99.90
11664;DHT22;72375;59.302;18.204;2023-09-30T10:31:55;22.70;99.90
11664;DHT22;72375;59.302;18.204;2023-09-30T10:34:47;23.20;99.90
11664;DHT22;72375;59.302;18.204;2023-09-30T10:37:36;23.40;99.90
11664;DHT22;72375;59.302;18.204;2023-09-30T10:40:26;23.30;99.90
11664;DHT22;72375;59.302;18.204;2023-09-30T10:43:29;23.20;99.90
11664;DHT22;72375;59.302;18.204;2023-09-30T10:46:30;23.00;99.90
11664;DHT22;72375;59.302;18.204;2023-09-30T10:49:37;23.00;99.90
11664;DHT22;72375;59.302;18.204;2023-09-30T10:52:24;23.00;99.90
11664;DHT22;72375;59.302;18.204;2023-09-30T10:55:10;23.00;99.90
11664;DHT22;72375;59.302;18.204;2023-09-30T10:57:56;23.00;99.90
11664;DHT22;72375;59.302;18.204;2023-09-30T11:00:52;22.90;99.90
11664;DHT22;72375;59.302;18.204;2023-09-30T11:03:38;22.60;99.90
11664;DHT22;72375;59.302;18.204;2023-09-30T11:06:24;22.30;99.90
11664;DHT22;72375;59.302;18.204;2023-09-30T11:09:16;22.00;99.90
11664;DHT22;72375;59.302;18.204;2023-09-30T11:12:01;21.60;99.90
11664;DHT22;72375;59.302;18.204;2023-09-30T11:14:47;21.30;99.90
11664;DHT22;72375;59.302;18.204;2023-09-30T11:17:35;21.00;99.90
11664;DHT22;72375;59.302;18.204;2023-09-30T11:20:21;20.80;99.90
11664;DHT22;72375;59.302;18.204;2023-09-30T11:23:07;20.60;99.90
11664;DHT22;72375;59.302;18.204;2023-09-30T11:25:55;20.50;99.90
11664;DHT22;72375;59.302;18.204;2023-09-30T11:28:43;20.60;99.90
11664;DHT22;72375;59.302;18.204;2023-09-30T11:31:29;21.00;99.90
11664;DHT22;72375;59.302;18.204;2023-09-30T11:34:18;21.60;99.90
11664;DHT22;72375;59.302;18.204;2023-09-30T11:37:04;22.20;99.90
11664;DHT22;72375;59.302;18.204;2023-09-30T11:39:50;22.80;99.90
11664;DHT22;72375;59.302;18.204;2023-09-30T11:42:38;23.20;99.90
11664;DHT22;72375;59.302;18.204;2023-09-30T11:45:24;23.60;99.90
11664;DHT22;72375;59.302;18.204;2023-09-30T11:48:19;24.00;99.90
11664;DHT22;72375;59.302;18.204;2023-09-30T11:51:05;24.30;99.90
11664;DHT22;72375;59.302;18.204;2023-09-30T11:53:51;24.50;99.90
11664;DHT22;72375;59.302;18.204;2023-09-30T11:56:37;24.60;99.90
11664;DHT22;72375;59.302;18.204;2023-09-30T11:59:24;24.70;99.90
11664;DHT22;72375;59.302;18.204;2023-09-30T12:02:10;24.70;99.70
11664;DHT22;72375;59.302;18.204;2023-09-30T12:04:56;24.40;99.30
11664;DHT22;72375;59.302;18.204;2023-09-30T12:07:42;24.00;98.50
11664;DHT22;72375;59.302;18.204;2023-09-30T12:10:27;23.60;98.70
11664;DHT22;72375;59.302;18.204;2023-09-30T12:13:15;23.40;98.80
11664;DHT22;72375;59.302;18.204;2023-09-30T12:16:02;23.30;99.20
11664;DHT22;72375;59.302;18.204;2023-09-30T12:18:48;23.00;99.10
11664;DHT22;72375;59.302;18.204;2023-09-30T12:21:34;22.80;99.00
11664;DHT22;72375;59.302;18.204;2023-09-30T12:24:20;22.70;99.10
11664;DHT22;72375;59.302;18.204;2023-09-30T12:27:08;23.00;99.20
11664;DHT22;72375;59.302;18.204;2023-09-30T12:29:53;23.70;99.00
11664;DHT22;72375;59.302;18.204;2023-09-30T12:32:40;24.10;97.90
11664;DHT22;72375;59.302;18.204;2023-09-30T12:35:26;24.40;96.70
11664;DHT22;72375;59.302;18.204;2023-09-30T12:38:11;24.50;96.40
11664;DHT22;72375;59.302;18.204;2023-09-30T12:40:58;24.50;96.10
11664;DHT22;72375;59.302;18.204;2023-09-30T12:43:45;24.50;96.30
11664;DHT22;72375;59.302;18.204;2023-09-30T12:46:31;24.60;96.50
11664;DHT22;72375;59.302;18.204;2023-09-30T12:49:20;24.60;96.40
11664;DHT22;72375;59.302;18.204;2023-09-30T12:52:05;24.70;96.30
11664;DHT22;72375;59.302;18.204;2023-09-30T12:54:51;24.70;96.20
11664;DHT22;72375;59.302;18.204;2023-09-30T12:57:37;24.70;96.00
11664;DHT22;72375;59.302;18.204;2023-09-30T13:00:23;24.70;95.30
11664;DHT22;72375;59.302;18.204;2023-09-30T13:03:10;24.60;95.00
11664;DHT22;72375;59.302;18.204;2023-09-30T13:06:01;24.50;94.80
11664;DHT22;72375;59.302;18.204;2023-09-30T13:08:46;24.40;94.70
11664;DHT22;72375;59.302;18.204;2023-09-30T13:11:32;24.30;94.70
11664;DHT22;72375;59.302;18.204;2023-09-30T13:14:17;24.10;94.30
11664;DHT22;72375;59.302;18.204;2023-09-30T13:17:03;23.90;94.00
11664;DHT22;72375;59.302;18.204;2023-09-30T13:19:49;23.60;93.60
11664;DHT22;72375;59.302;18.204;2023-09-30T13:22:37;23.40;93.30
11664;DHT22;72375;59.302;18.204;2023-09-30T13:25:23;23.20;93.30
11664;DHT22;72375;59.302;18.204;2023-09-30T13:28:08;23.00;93.30
11664;DHT22;72375;59.302;18.204;2023-09-30T13:30:54;22.90;93.40
11664;DHT22;72375;59.302;18.204;2023-09-30T13:33:40;22.80;93.50
11664;DHT22;72375;59.302;18.204;2023-09-30T13:36:26;22.60;93.60
11664;DHT22;72375;59.302;18.204;2023-09-30T13:39:13;22.50;93.80
11664;DHT22;72375;59.302;18.204;2023-09-30T13:42:01;22.40;93.90
11664;DHT22;72375;59.302;18.204;2023-09-30T13:44:47;22.30;93.90
11664;DHT22;72375;59.302;18.204;2023-09-30T13:47:33;22.10;94.00
11664;DHT22;72375;59.302;18.204;2023-09-30T13:50:19;22.00;93.60
11664;DHT22;72375;59.302;18.204;2023-09-30T13:53:05;21.90;93.60
11664;DHT22;72375;59.302;18.204;2023-09-30T13:55:52;21.70;93.80
11664;DHT22;72375;59.302;18.204;2023-09-30T13:58:38;21.50;93.90
11664;DHT22;72375;59.302;18.204;2023-09-30T14:01:23;21.40;93.70
11664;DHT22;72375;59.302;18.204;2023-09-30T14:04:09;21.30;93.70
11664;DHT22;72375;59.302;18.204;2023-09-30T14:06:55;21.20;94.10
11664;DHT22;72375;59.302;18.204;2023-09-30T14:09:40;21.20;93.80
11664;DHT22;72375;59.302;18.204;2023-09-30T14:12:27;21.20;93.80
11664;DHT22;72375;59.302;18.204;2023-09-30T14:15:14;21.10;94.10
11664;DHT22;72375;59.302;18.204;2023-09-30T14:18:00;21.00;94.40
11664;DHT22;72375;59.302;18.204;2023-09-30T14:20:46;20.80;94.80
11664;DHT22;72375;59.302;18.204;2023-09-30T14:23:32;20.70;94.50
11664;DHT22;72375;59.302;18.204;2023-09-30T14:26:17;20.60;94.90
11664;DHT22;72375;59.302;18.204;2023-09-30T14:29:04;20.40;94.90
11664;DHT22;72375;59.302;18.204;2023-09-30T14:31:50;20.30;94.90
11664;DHT22;72375;59.302;18.204;2023-09-30T14:34:36;20.30;94.90
11664;DHT22;72375;59.302;18.204;2023-09-30T14:37:22;20.20;95.00
11664;DHT22;72375;59.302;18.204;2023-09-30T14:40:09;20.10;95.10
11664;DHT22;72375;59.302;18.204;2023-09-30T14:42:55;20.10;95.00
11664;DHT22;72375;59.302;18.204;2023-09-30T14:45:42;20.00;95.30
11664;DHT22;72375;59.302;18.204;2023-09-30T14:48:28;19.80;95.60
11664;DHT22;72375;59.302;18.204;2023-09-30T14:51:14;19.70;95.80
11664;DHT22;72375;59.302;18.204;2023-09-30T14:54:00;19.70;96.00
11664;DHT22;72375;59.302;18.204;2023-09-30T14:56:46;19.50;96.20
11664;DHT22;72375;59.302;18.204;2023-09-30T14:59:33;19.50;96.30
11664;DHT22;72375;59.302;18.204;2023-09-30T15:02:20;19.30;96.50
11664;DHT22;72375;59.302;18.204;2023-09-30T15:05:06;19.30;96.70
11664;DHT22;72375;59.302;18.204;2023-09-30T15:07:53;19.20;96.70
11664;DHT22;72375;59.302;18.204;2023-09-30T15:10:39;19.10;97.40
11664;DHT22;72375;59.302;18.204;2023-09-30T15:13:24;19.00;97.10
11664;DHT22;72375;59.302;18.204;2023-09-30T15:16:17;19.00;97.00
11664;DHT22;72375;59.302;18.204;2023-09-30T15:19:05;18.90;97.00
11664;DHT22;72375;59.302;18.204;2023-09-30T15:21:50;18.80;97.20
11664;DHT22;72375;59.302;18.204;2023-09-30T15:24:36;18.80;97.40
11664;DHT22;72375;59.302;18.204;2023-09-30T15:27:21;18.80;97.30
11664;DHT22;72375;59.302;18.204;2023-09-30T15:30:09;18.70;97.10
11664;DHT22;72375;59.302;18.204;2023-09-30T15:32:56;18.60;97.10
11664;DHT22;72375;59.302;18.204;2023-09-30T15:35:43;18.50;97.70
11664;DHT22;72375;59.302;18.204;2023-09-30T15:38:28;18.50;97.30
11664;DHT22;72375;59.302;18.204;2023-09-30T15:41:15;18.40;97.80
11664;DHT22;72375;59.302;18.204;2023-09-30T15:44:01;18.40;98.00
11664;DHT22;72375;59.302;18.204;2023-09-30T15:46:46;18.30;98.10
11664;DHT22;72375;59.302;18.204;2023-09-30T15:49:32;18.20;98.10
11664;DHT22;72375;59.302;18.204;2023-09-30T15:52:19;18.20;98.40
11664;DHT22;72375;59.302;18.204;2023-09-30T15:55:06;18.10;98.70
11664;DHT22;72375;59.302;18.204;2023-09-30T15:57:52;18.00;98.90
11664;DHT22;72375;59.302;18.204;2023-09-30T16:00:39;18.00;98.90
11664;DHT22;72375;59.302;18.204;2023-09-30T16:03:26;17.90;98.90
11664;DHT22;72375;59.302;18.204;2023-09-30T16:06:11;17.90;99.30
11664;DHT22;72375;59.302;18.204;2023-09-30T16:08:59;17.80;99.40
11664;DHT22;72375;59.302;18.204;2023-09-30T16:11:44;17.80;99.50
11664;DHT22;72375;59.302;18.204;2023-09-30T16:14:32;17.70;99.60
11664;DHT22;72375;59.302;18.204;2023-09-30T16:17:19;17.60;99.90
11664;DHT22;72375;59.302;18.204;2023-09-30T16:20:07;17.60;99.80
11664;DHT22;72375;59.302;18.204;2023-09-30T16:22:53;17.50;99.90
11664;DHT22;72375;59.302;18.204;2023-09-30T16:25:40;17.50;99.90
11664;DHT22;72375;59.302;18.204;2023-09-30T16:28:25;17.40;99.90
11664;DHT22;72375;59.302;18.204;2023-09-30T16:31:11;17.30;99.90
11664;DHT22;72375;59.302;18.204;2023-09-30T16:33:58;17.30;99.90
11664;DHT22;72375;59.302;18.204;2023-09-30T16:36:44;17.20;99.90
11664;DHT22;72375;59.302;18.204;2023-09-30T16:39:29;17.20;99.90
11664;DHT22;72375;59.302;18.204;2023-09-30T16:42:17;17.10;99.90
11664;DHT22;72375;59.302;18.204;2023-09-30T16:45:02;17.10;99.90
11664;DHT22;72375;59.302;18.204;2023-09-30T16:47:48;17.00;99.90
11664;DHT22;72375;59.302;18.204;2023-09-30T16:50:34;17.00;99.90
11664;DHT22;72375;59.302;18.204;2023-09-30T16:53:19;16.90;99.90
11664;DHT22;72375;59.302;18.204;2023-09-30T16:56:05;16.90;99.90
11664;DHT22;72375;59.302;18.204;2023-09-30T16:58:52;16.90;99.90
11664;DHT22;72375;59.302;18.204;2023-09-30T17:01:37;16.80;99.90
11664;DHT22;72375;59.302;18.204;2023-09-30T17:04:23;16.80;99.90
11664;DHT22;72375;59.302;18.204;2023-09-30T17:07:09;16.80;99.90
11664;DHT22;72375;59.302;18.204;2023-09-30T17:09:55;16.70;99.90
11664;DHT22;72375;59.302;18.204;2023-09-30T17:12:40;16.70;99.90
11664;DHT22;72375;59.302;18.204;2023-09-30T17:15:27;16.60;99.90